Terminal Aerodrome Forecast
Issued by NWS

Home | Current Version | Previous Version | Text Only | Print | Product List | Glossary On
Versions: 1 2 3 4 5 6 7 8 9 10 11 12 13
000
FTUS46 KSEW 041700
TAFBFI
TAF
KBFI 041720Z 0418/0518 16011G16KT P6SM FEW025
     FM042000 18012G18KT P6SM SCT045
     FM042200 18012G18KT P6SM BKN045
     FM050200 17010KT P6SM VCSH SCT025 BKN040
     FM050800 17007KT P6SM VCSH BKN035=

USA.gov is the U.S. government's official web portal to all federal, state and local government web resources and services.